createdAt,value
2019-05-12T00:00:20.882Z,7.59
2019-05-12T00:01:24.138Z,7.56
2019-05-12T00:02:23.638Z,7.58
2019-05-12T00:03:24.428Z,7.64
2019-05-12T00:04:24.689Z,7.62
2019-05-12T00:05:25.092Z,7.69
2019-05-12T00:06:25.501Z,7.62
2019-05-12T00:07:25.604Z,7.74
2019-05-12T00:08:28.028Z,7.69
2019-05-12T00:09:28.625Z,7.69
2019-05-12T00:10:28.894Z,7.7
2019-05-12T00:11:29.078Z,7.64
2019-05-12T00:12:29.235Z,7.78
2019-05-12T00:13:29.343Z,7.78
2019-05-12T00:14:29.447Z,7.81
2019-05-12T00:15:33.549Z,7.8
2019-05-12T00:16:29.987Z,7.84
2019-05-12T00:17:30.672Z,7.81
2019-05-12T00:18:31.082Z,7.88
2019-05-12T00:19:33.908Z,7.84
2019-05-12T00:20:33.910Z,7.93
2019-05-12T00:21:39.841Z,7.88
2019-05-12T00:22:34.467Z,7.91
2019-05-12T00:23:38.757Z,7.9
2019-05-12T00:24:34.162Z,7.95
2019-05-12T00:25:34.270Z,7.93
2019-05-12T00:26:34.387Z,7.95
2019-05-12T00:27:34.782Z,8.02
2019-05-12T00:28:34.897Z,7.93
2019-05-12T00:29:35.339Z,7.91
2019-05-12T00:30:39.145Z,7.91
2019-05-12T00:31:38.549Z,7.91
2019-05-12T00:32:39.201Z,8.09
2019-05-12T00:33:38.824Z,8.09
2019-05-12T00:34:38.829Z,8.14
2019-05-12T00:35:39.232Z,8.09
2019-05-12T00:36:39.346Z,8.17
2019-05-12T00:37:40.030Z,8.13
2019-05-12T00:38:40.418Z,8.09
2019-05-12T00:39:41.105Z,8.14
2019-05-12T00:40:44.547Z,8.13
2019-05-12T00:41:44.900Z,8.09
2019-05-12T00:42:43.955Z,8.06
2019-05-12T00:43:43.731Z,8.09
2019-05-12T00:44:44.896Z,8.06
2019-05-12T00:45:44.908Z,8.17
2019-05-12T00:46:45.012Z,8.08
2019-05-12T00:47:48.556Z,8.14
2019-05-12T00:48:47.784Z,8.18
2019-05-12T00:49:50.314Z,8.06
2019-05-12T00:50:48.908Z,8.2
2019-05-12T00:51:49.150Z,8.08
2019-05-12T00:52:49.468Z,8.13
2019-05-12T00:53:49.004Z,8.06
2019-05-12T00:54:49.421Z,8.16
2019-05-12T00:55:50.115Z,8.17
2019-05-12T00:56:50.226Z,8.03
2019-05-12T00:57:50.330Z,8.06
2019-05-12T00:58:51.305Z,8.13
2019-05-12T00:59:53.630Z,8.17
2019-05-12T01:00:53.783Z,8.03
2019-05-12T01:01:53.671Z,8.05
2019-05-12T01:02:54.375Z,7.91
2019-05-12T01:03:54.162Z,8.06
2019-05-12T01:04:54.220Z,7.87
2019-05-12T01:05:54.135Z,7.9
2019-05-12T01:06:58.829Z,7.9
2019-05-12T01:07:59.008Z,7.9
2019-05-12T01:08:58.167Z,7.93
2019-05-12T01:10:00.984Z,7.81
2019-05-12T01:10:58.672Z,7.85
2019-05-12T01:11:59.157Z,7.84
2019-05-12T01:12:59.078Z,7.9
2019-05-12T01:13:59.185Z,7.88
2019-05-12T01:14:59.867Z,7.95
2019-05-12T01:16:00.565Z,7.93
2019-05-12T01:17:00.582Z,7.91
2019-05-12T01:18:00.984Z,7.93
2019-05-12T01:19:04.328Z,7.95
2019-05-12T01:20:04.208Z,7.93
2019-05-12T01:21:04.432Z,7.95
2019-05-12T01:22:04.205Z,7.91
2019-05-12T01:23:04.319Z,7.91
2019-05-12T01:24:09.425Z,7.95
2019-05-12T01:25:05.545Z,7.93
2019-05-12T01:26:09.247Z,8.02
2019-05-12T01:27:08.940Z,8.06
2019-05-12T01:28:08.662Z,7.99
2019-05-12T01:29:09.653Z,7.95
2019-05-12T01:30:09.768Z,7.95
2019-05-12T01:31:10.406Z,8.01
2019-05-12T01:32:13.269Z,8.03
2019-05-12T01:33:14.190Z,8.06
2019-05-12T01:34:13.605Z,8.06
2019-05-12T01:35:13.916Z,8.06
2019-05-12T01:36:14.042Z,8.06
2019-05-12T01:37:13.446Z,8.03
2019-05-12T01:38:13.868Z,8.09
2019-05-12T01:39:14.311Z,8.03
2019-05-12T01:40:15.315Z,8.02
2019-05-12T01:41:17.497Z,8.03
2019-05-12T01:42:18.595Z,8.03
2019-05-12T01:43:18.576Z,8.06
2019-05-12T01:44:18.738Z,8.06
2019-05-12T01:45:18.361Z,8.14
2019-05-12T01:46:18.443Z,8.14
2019-05-12T01:47:19.266Z,8.09
2019-05-12T01:48:19.660Z,8.09
2019-05-12T01:49:20.404Z,8.09
2019-05-12T01:50:20.514Z,8.13
2019-05-12T01:51:23.783Z,8.09
2019-05-12T01:52:23.329Z,8.02
2019-05-12T01:53:23.625Z,8.02
2019-05-12T01:54:24.364Z,8.05
2019-05-12T01:55:24.400Z,7.9
2019-05-12T01:56:24.507Z,7.93
2019-05-12T01:57:25.226Z,7.9
2019-05-12T01:58:27.619Z,7.96
2019-05-12T01:59:25.648Z,7.99
2019-05-12T02:00:29.032Z,7.93
2019-05-12T02:01:28.733Z,7.91
2019-05-12T02:02:29.163Z,8.01
2019-05-12T02:03:28.720Z,7.95
2019-05-12T02:04:28.737Z,8.03
2019-05-12T02:05:28.845Z,8.03
2019-05-12T02:06:29.545Z,8.02
2019-05-12T02:07:30.252Z,8.02
2019-05-12T02:08:30.363Z,7.99
2019-05-12T02:09:31.045Z,8.05
2019-05-12T02:10:31.077Z,7.93
2019-05-12T02:11:31.343Z,8.02
2019-05-12T02:12:34.565Z,7.93
2019-05-12T02:13:33.225Z,7.85
2019-05-12T02:14:33.923Z,7.91
2019-05-12T02:15:34.030Z,7.96
2019-05-12T02:16:34.709Z,7.91
2019-05-12T02:17:35.096Z,7.9
2019-05-12T02:18:37.756Z,7.95
2019-05-12T02:19:38.788Z,7.88
2019-05-12T02:20:38.596Z,7.84
2019-05-12T02:21:38.960Z,7.9
2019-05-12T02:22:39.660Z,7.91
2019-05-12T02:23:39.764Z,7.88
2019-05-12T02:24:40.169Z,7.93
2019-05-12T02:25:40.273Z,7.9
2019-05-12T02:26:40.951Z,7.88
2019-05-12T02:27:40.916Z,7.83
2019-05-12T02:28:45.145Z,7.83
2019-05-12T02:29:44.286Z,7.83
2019-05-12T02:30:50.657Z,7.87
2019-05-12T02:31:45.784Z,7.87
2019-05-12T02:32:59.827Z,7.87
2019-05-12T02:33:45.681Z,7.84
2019-05-12T02:34:46.395Z,7.85
2019-05-12T02:35:50.552Z,7.9
2019-05-12T02:36:50.741Z,7.88
2019-05-12T02:37:50.973Z,7.88
2019-05-12T02:38:51.382Z,7.93
2019-05-12T02:39:50.758Z,7.9
2019-05-12T02:40:50.403Z,7.83
2019-05-12T02:41:50.733Z,7.9
2019-05-12T02:42:55.409Z,7.88
2019-05-12T02:43:55.643Z,7.85
2019-05-12T02:44:54.940Z,7.83
2019-05-12T02:45:54.229Z,7.88
2019-05-12T02:46:55.534Z,7.81
2019-05-12T02:47:54.909Z,7.8
2019-05-12T02:48:54.973Z,7.83
2019-05-12T02:49:55.066Z,7.66
2019-05-12T02:50:55.178Z,7.67
2019-05-12T02:51:55.401Z,7.66
2019-05-12T02:52:56.093Z,7.61
2019-05-12T02:54:00.264Z,7.69
2019-05-12T02:55:06.879Z,7.7
2019-05-12T02:55:59.995Z,7.64
2019-05-12T02:57:00.598Z,7.58
2019-05-12T02:58:00.889Z,7.64
2019-05-12T02:59:00.780Z,7.64
2019-05-12T03:00:00.773Z,7.61
2019-05-12T03:01:05.000Z,7.7
2019-05-12T03:02:04.889Z,7.61
2019-05-12T03:03:05.732Z,7.69
2019-05-12T03:04:06.216Z,7.69
2019-05-12T03:05:06.011Z,7.69
2019-05-12T03:06:05.796Z,7.66
2019-05-12T03:07:14.812Z,7.64
2019-05-12T03:08:05.615Z,7.64
2019-05-12T03:09:05.604Z,7.67
2019-05-12T03:10:06.294Z,7.59
2019-05-12T03:11:06.996Z,7.62
2019-05-12T03:12:07.197Z,7.55
2019-05-12T03:13:09.888Z,7.56
2019-05-12T03:14:09.549Z,7.62
2019-05-12T03:15:14.636Z,7.5
2019-05-12T03:16:10.779Z,7.43
2019-05-12T03:17:10.251Z,7.4
2019-05-12T03:18:14.868Z,7.26
2019-05-12T03:19:14.668Z,7.25
2019-05-12T03:20:14.929Z,7.18
2019-05-12T03:21:14.827Z,7.21
2019-05-12T03:22:14.507Z,7.22
2019-05-12T03:23:19.756Z,7.25
2019-05-12T03:24:17.753Z,7.25
2019-05-12T03:25:30.337Z,7.18
2019-05-12T03:26:16.101Z,7.15
2019-05-12T03:27:18.464Z,7.15
2019-05-12T03:28:16.641Z,7.07
2019-05-12T03:29:15.652Z,7.19
2019-05-12T03:30:20.223Z,7.14
2019-05-12T03:31:29.463Z,7.14
2019-05-12T03:32:28.662Z,7.04
2019-05-12T03:33:41.887Z,7.01
2019-05-12T03:34:30.219Z,7.08
2019-05-12T03:35:54.435Z,7.03
2019-05-12T03:36:49.120Z,7.04
2019-05-12T03:37:36.713Z,7.04
2019-05-12T03:38:36.376Z,7.03
2019-05-12T03:39:34.107Z,7.03
2019-05-12T03:40:37.169Z,7.05
2019-05-12T03:41:34.650Z,7
2019-05-12T03:42:35.704Z,6.97
2019-05-12T03:43:35.746Z,7.01
2019-05-12T03:44:35.531Z,7.03
2019-05-12T03:45:36.457Z,6.95
2019-05-12T03:46:35.876Z,6.96
2019-05-12T03:47:36.015Z,7
2019-05-12T03:48:35.686Z,7.05
2019-05-12T03:49:35.433Z,7.05
2019-05-12T03:50:36.889Z,7.03
2019-05-12T03:51:40.345Z,6.86
2019-05-12T03:52:40.627Z,6.86
2019-05-12T03:53:41.033Z,6.9
2019-05-12T03:54:40.984Z,6.89
2019-05-12T03:55:47.612Z,6.87
2019-05-12T03:56:40.011Z,6.93
2019-05-12T03:57:40.196Z,7.05
2019-05-12T03:58:40.744Z,6.97
2019-05-12T03:59:41.183Z,7.05
2019-05-12T04:00:45.352Z,6.97
2019-05-12T04:01:45.780Z,7.03
2019-05-12T04:02:46.016Z,6.96
2019-05-12T04:03:45.760Z,7.04
2019-05-12T04:04:45.684Z,7.11
2019-05-12T04:05:45.958Z,7.05
2019-05-12T04:06:45.969Z,7.07
2019-05-12T04:07:45.955Z,7.03
2019-05-12T04:08:46.936Z,7.18
2019-05-12T04:09:50.811Z,7.14
2019-05-12T04:10:54.550Z,7.01
2019-05-12T04:11:49.967Z,7.05
2019-05-12T04:12:50.393Z,6.96
2019-05-12T04:13:50.715Z,7
2019-05-12T04:14:50.486Z,6.97
2019-05-12T04:15:54.849Z,7
2019-05-12T04:16:51.380Z,6.9
2019-05-12T04:17:54.658Z,6.87
2019-05-12T04:18:55.407Z,6.96
2019-05-12T04:19:55.324Z,6.87
2019-05-12T04:20:54.865Z,6.93
2019-05-12T04:21:55.038Z,6.96
2019-05-12T04:22:55.620Z,6.9
2019-05-12T04:23:56.429Z,6.87
2019-05-12T04:24:56.651Z,6.83
2019-05-12T04:26:17.111Z,6.78
2019-05-12T04:27:00.515Z,6.78
2019-05-12T04:27:59.765Z,6.78
2019-05-12T04:29:00.983Z,6.77
2019-05-12T04:30:00.571Z,6.77
2019-05-12T04:31:00.511Z,6.72
2019-05-12T04:32:01.572Z,6.74
2019-05-12T04:33:05.584Z,6.68
2019-05-12T04:34:05.686Z,6.78
2019-05-12T04:35:05.397Z,6.71
2019-05-12T04:36:06.178Z,6.65
2019-05-12T04:37:04.896Z,6.78
2019-05-12T04:38:05.904Z,6.64
2019-05-12T04:39:06.371Z,6.62
2019-05-12T04:40:10.809Z,6.68
2019-05-12T04:41:14.870Z,6.67
2019-05-12T04:42:10.824Z,6.67
2019-05-12T04:43:14.899Z,6.72
2019-05-12T04:44:15.729Z,6.71
2019-05-12T04:45:10.874Z,6.75
2019-05-12T04:46:14.786Z,6.68
2019-05-12T04:47:14.998Z,6.74
2019-05-12T04:48:21.155Z,6.67
2019-05-12T04:49:16.170Z,6.68
2019-05-12T04:50:15.962Z,6.7
2019-05-12T04:51:15.758Z,6.74
2019-05-12T04:52:16.202Z,6.6
2019-05-12T04:53:15.843Z,6.71
2019-05-12T04:54:16.512Z,6.59
2019-05-12T04:55:16.865Z,6.62
2019-05-12T04:56:25.920Z,6.72
2019-05-12T04:57:25.041Z,6.57
2019-05-12T04:58:24.961Z,6.57
2019-05-12T04:59:21.306Z,6.54
2019-05-12T05:00:25.280Z,6.64
2019-05-12T05:01:21.331Z,6.53
2019-05-12T05:02:25.491Z,6.46
2019-05-12T05:03:25.374Z,6.52
2019-05-12T05:04:25.005Z,6.43
2019-05-12T05:05:25.224Z,6.57
2019-05-12T05:06:25.800Z,6.54
2019-05-12T05:07:25.430Z,6.49
2019-05-12T05:08:26.816Z,6.46
2019-05-12T05:09:26.409Z,6.5
2019-05-12T05:10:30.146Z,6.47
2019-05-12T05:11:30.817Z,6.46
2019-05-12T05:12:30.046Z,6.44
2019-05-12T05:13:29.970Z,6.46
2019-05-12T05:14:30.305Z,6.49
2019-05-12T05:15:30.568Z,6.5
2019-05-12T05:16:30.462Z,6.36
2019-05-12T05:17:30.595Z,6.34
2019-05-12T05:18:31.102Z,6.41
2019-05-12T05:19:34.342Z,6.26
2019-05-12T05:20:34.862Z,6.29
2019-05-12T05:21:34.856Z,6.25
2019-05-12T05:22:33.975Z,6.19
2019-05-12T05:23:34.902Z,6.2
2019-05-12T05:24:35.329Z,6.22
2019-05-12T05:25:35.447Z,6.19
2019-05-12T05:26:40.639Z,6.19
2019-05-12T05:27:36.329Z,6.22
2019-05-12T05:28:36.439Z,6.22
2019-05-12T05:29:39.938Z,6.26
2019-05-12T05:30:39.629Z,6.13
2019-05-12T05:31:39.450Z,6.09
2019-05-12T05:32:39.698Z,6.1
2019-05-12T05:33:39.876Z,6.22
2019-05-12T05:34:40.382Z,6.25
2019-05-12T05:35:45.058Z,6.22
2019-05-12T05:36:40.756Z,6.22
2019-05-12T05:37:45.853Z,6.31
2019-05-12T05:38:43.961Z,6.39
2019-05-12T05:39:54.286Z,6.36
2019-05-12T05:40:44.121Z,6.28
2019-05-12T05:41:53.671Z,6.29
2019-05-12T05:42:44.465Z,6.29
2019-05-12T05:43:54.082Z,6.35
2019-05-12T05:44:46.462Z,6.16
2019-05-12T05:46:07.006Z,6.22
2019-05-12T05:46:57.220Z,6.16
2019-05-12T05:47:49.827Z,6.15
2019-05-12T05:48:49.876Z,6.09
2019-05-12T05:49:48.994Z,6.01
2019-05-12T05:50:49.390Z,6.06
2019-05-12T05:51:57.751Z,5.88
2019-05-12T05:52:50.585Z,5.92
2019-05-12T05:53:56.063Z,5.83
2019-05-12T05:54:53.743Z,5.83
2019-05-12T05:56:00.537Z,5.79
2019-05-12T05:57:06.410Z,5.72
2019-05-12T05:57:53.962Z,5.76
2019-05-12T05:58:57.840Z,5.73
2019-05-12T05:59:54.722Z,5.76
2019-05-12T06:01:08.879Z,5.79
2019-05-12T06:02:00.345Z,5.74
2019-05-12T06:02:56.468Z,5.77
2019-05-12T06:04:14.521Z,5.72
2019-05-12T06:05:05.207Z,5.69
2019-05-12T06:06:15.229Z,5.72
2019-05-12T06:07:06.309Z,5.65
2019-05-12T06:08:16.015Z,5.81
2019-05-12T06:09:09.491Z,5.72
2019-05-12T06:10:09.883Z,5.69
2019-05-12T06:11:27.983Z,5.73
2019-05-12T06:12:15.278Z,5.61
2019-05-12T06:13:10.971Z,5.56
2019-05-12T06:14:24.068Z,5.44
2019-05-12T06:15:19.480Z,5.59
2019-05-12T06:16:26.494Z,5.56
2019-05-12T06:17:23.497Z,5.52
2019-05-12T06:18:24.227Z,5.46
2019-05-12T06:19:26.362Z,5.44
2019-05-12T06:20:24.078Z,5.46
2019-05-12T06:21:28.992Z,5.4
2019-05-12T06:22:24.341Z,5.41
2019-05-12T06:23:34.716Z,5.4
2019-05-12T06:24:26.805Z,5.37
2019-05-12T06:25:50.546Z,5.38
2019-05-12T06:26:36.738Z,5.4
2019-05-12T06:27:35.891Z,5.51
2019-05-12T06:28:37.004Z,5.43
2019-05-12T06:29:33.130Z,5.43
2019-05-12T06:30:30.074Z,5.41
2019-05-12T06:31:35.173Z,5.44
2019-05-12T06:32:30.608Z,5.36
2019-05-12T06:33:37.047Z,5.36
2019-05-12T06:34:30.428Z,5.29
2019-05-12T06:35:37.118Z,5.26
2019-05-12T06:36:34.612Z,5.29
2019-05-12T06:37:33.613Z,5.29
2019-05-12T06:38:40.531Z,5.25
2019-05-12T06:39:34.132Z,5.28
2019-05-12T06:40:42.900Z,5.25
2019-05-12T06:41:34.014Z,5.2
2019-05-12T06:42:34.503Z,5.22
2019-05-12T06:43:42.545Z,5.26
2019-05-12T06:44:34.637Z,5.22
2019-05-12T06:45:45.909Z,5.23
2019-05-12T06:46:35.604Z,5.2
2019-05-12T06:47:45.128Z,5.31
2019-05-12T06:48:45.325Z,5.25
2019-05-12T06:49:39.504Z,5.23
2019-05-12T06:50:44.745Z,5.37
2019-05-12T06:51:39.387Z,5.34
2019-05-12T06:52:49.070Z,5.29
2019-05-12T06:53:39.891Z,5.29
2019-05-12T06:54:51.114Z,5.22
2019-05-12T06:55:44.755Z,5.23
2019-05-12T06:56:44.117Z,5.13
2019-05-12T06:57:50.436Z,5.22
2019-05-12T06:58:44.557Z,5.2
2019-05-12T06:59:53.022Z,5.23
2019-05-12T07:00:44.446Z,5.31
2019-05-12T07:01:49.704Z,5.18
2019-05-12T07:02:55.707Z,5.22
2019-05-12T07:03:46.396Z,5.23
2019-05-12T07:04:59.632Z,5.12
2019-05-12T07:05:50.507Z,5.12
2019-05-12T07:07:00.264Z,5.07
2019-05-12T07:07:54.024Z,5.1
2019-05-12T07:09:09.141Z,5.12
2019-05-12T07:10:19.430Z,5.1
2019-05-12T07:11:14.811Z,5.08
2019-05-12T07:12:14.099Z,5.15
2019-05-12T07:13:24.345Z,5.05
2019-05-12T07:14:27.178Z,5.15
2019-05-12T07:15:17.261Z,5.12
2019-05-12T07:16:30.534Z,5.1
2019-05-12T07:17:20.279Z,5.08
2019-05-12T07:18:32.293Z,5.16
2019-05-12T07:19:26.110Z,5.18
2019-05-12T07:20:20.666Z,5.2
2019-05-12T07:21:27.613Z,5.1
2019-05-12T07:22:43.528Z,5.13
2019-05-12T07:23:30.561Z,5.05
2019-05-12T07:24:24.229Z,5.02
2019-05-12T07:25:36.577Z,5.05
2019-05-12T07:26:25.534Z,5.12
2019-05-12T07:27:59.867Z,5.16
2019-05-12T07:28:25.283Z,5.22
2019-05-12T07:29:25.740Z,5.18
2019-05-12T07:30:25.853Z,5.2
2019-05-12T07:31:25.998Z,5.18
2019-05-12T07:32:29.530Z,5.34
2019-05-12T07:33:43.268Z,5.29
2019-05-12T07:34:29.506Z,5.34
2019-05-12T07:35:29.507Z,5.36
2019-05-12T07:36:29.822Z,5.36
2019-05-12T07:37:30.386Z,5.44
2019-05-12T07:38:33.806Z,5.44
2019-05-12T07:39:36.859Z,5.38
2019-05-12T07:40:38.230Z,5.33
2019-05-12T07:41:34.830Z,5.36
2019-05-12T07:42:39.851Z,5.28
2019-05-12T07:43:34.272Z,5.25
2019-05-12T07:44:44.707Z,5.26
2019-05-12T07:45:34.735Z,5.26
2019-05-12T07:46:45.503Z,5.4
2019-05-12T07:47:35.777Z,5.37
2019-05-12T07:48:46.414Z,5.36
2019-05-12T07:49:44.428Z,5.43
2019-05-12T07:50:37.411Z,5.49
2019-05-12T07:51:45.271Z,5.52
2019-05-12T07:52:39.557Z,5.55
2019-05-12T07:53:39.360Z,5.55
2019-05-12T07:54:44.791Z,5.43
2019-05-12T07:55:49.717Z,5.56
2019-05-12T07:56:44.439Z,5.59
2019-05-12T07:58:13.424Z,5.56
2019-05-12T07:58:57.059Z,5.65
2019-05-12T07:59:46.604Z,5.58
2019-05-12T08:00:44.571Z,5.58
2019-05-12T08:01:55.906Z,5.54
2019-05-12T08:02:45.022Z,5.55
2019-05-12T08:03:44.224Z,5.67
2019-05-12T08:04:46.530Z,5.59
2019-05-12T08:05:45.923Z,5.73
2019-05-12T08:06:50.276Z,5.69
2019-05-12T08:07:50.799Z,5.7
2019-05-12T08:08:59.335Z,5.65
2019-05-12T08:09:48.708Z,5.72
2019-05-12T08:10:55.823Z,5.76
2019-05-12T08:11:49.343Z,5.69
2019-05-12T08:12:58.888Z,5.65
2019-05-12T08:13:50.163Z,5.7
2019-05-12T08:14:50.583Z,5.72
2019-05-12T08:16:03.891Z,5.61
2019-05-12T08:17:11.289Z,5.62
2019-05-12T08:18:08.270Z,5.62
2019-05-12T08:18:59.378Z,5.62
2019-05-12T08:19:59.662Z,5.54
2019-05-12T08:21:00.478Z,5.59
2019-05-12T08:22:01.444Z,5.59
2019-05-12T08:23:10.780Z,5.55
2019-05-12T08:24:04.130Z,5.49
2019-05-12T08:25:04.504Z,5.44
2019-05-12T08:26:19.253Z,5.44
2019-05-12T08:27:13.761Z,5.41
2019-05-12T08:28:39.987Z,5.46
2019-05-12T08:29:16.714Z,5.55
2019-05-12T08:30:08.835Z,5.55
2019-05-12T08:31:09.384Z,5.58
2019-05-12T08:32:15.819Z,5.64
2019-05-12T08:33:15.512Z,5.55
2019-05-12T08:34:10.181Z,5.54
2019-05-12T08:35:13.688Z,5.64
2019-05-12T08:36:24.229Z,5.61
2019-05-12T08:37:24.651Z,5.62
2019-05-12T08:38:25.150Z,5.69
2019-05-12T08:39:28.578Z,5.64
2019-05-12T08:40:25.098Z,5.73
2019-05-12T08:41:24.092Z,5.64
2019-05-12T08:42:24.270Z,5.62
2019-05-12T08:43:24.840Z,5.58
2019-05-12T08:44:40.340Z,5.58
2019-05-12T08:45:37.867Z,5.56
2019-05-12T08:46:26.228Z,5.56
2019-05-12T08:47:38.942Z,5.58
2019-05-12T08:48:30.861Z,5.61
2019-05-12T08:49:50.855Z,5.56
2019-05-12T08:50:37.516Z,5.54
2019-05-12T08:51:30.809Z,5.61
2019-05-12T08:52:36.935Z,5.47
2019-05-12T08:53:34.177Z,5.58
2019-05-12T08:54:33.314Z,5.56
2019-05-12T08:55:37.870Z,5.59
2019-05-12T08:56:33.851Z,5.54
2019-05-12T08:57:47.073Z,5.62
2019-05-12T08:58:51.950Z,5.67
2019-05-12T08:59:34.489Z,5.58
2019-05-12T09:00:39.401Z,5.58
2019-05-12T09:01:36.544Z,5.61
2019-05-12T09:02:35.069Z,5.76
2019-05-12T09:03:36.442Z,5.59
2019-05-12T09:04:36.747Z,5.52
2019-05-12T09:05:44.923Z,5.49
2019-05-12T09:06:39.996Z,5.51
2019-05-12T09:07:43.942Z,5.56
2019-05-12T09:08:50.147Z,5.58
2019-05-12T09:09:39.562Z,5.52
2019-05-12T09:10:40.270Z,5.52
2019-05-12T09:11:40.194Z,5.56
2019-05-12T09:12:40.643Z,5.52
2019-05-12T09:13:43.943Z,5.58
2019-05-12T09:14:47.223Z,5.55
2019-05-12T09:15:44.047Z,5.55
2019-05-12T09:16:44.574Z,5.49
2019-05-12T09:17:57.341Z,5.52
2019-05-12T09:18:45.114Z,5.47
2019-05-12T09:19:44.593Z,5.49
2019-05-12T09:20:56.669Z,5.44
2019-05-12T09:21:45.837Z,5.4
2019-05-12T09:22:46.236Z,5.41
2019-05-12T09:23:49.092Z,5.4
2019-05-12T09:24:49.831Z,5.41
2019-05-12T09:25:57.386Z,5.51
2019-05-12T09:26:49.240Z,5.46
2019-05-12T09:27:51.075Z,5.47
2019-05-12T09:28:55.725Z,5.51
2019-05-12T09:29:53.888Z,5.46
2019-05-12T09:30:55.206Z,5.49
2019-05-12T09:31:53.442Z,5.59
2019-05-12T09:32:56.440Z,5.62
2019-05-12T09:33:55.021Z,5.55
2019-05-12T09:34:58.619Z,5.59
2019-05-12T09:35:55.377Z,5.59
2019-05-12T09:37:04.759Z,5.67
2019-05-12T09:37:59.311Z,5.62
2019-05-12T09:39:06.340Z,5.61
2019-05-12T09:39:59.333Z,5.55
2019-05-12T09:41:06.487Z,5.58
2019-05-12T09:42:00.874Z,5.73
2019-05-12T09:43:11.468Z,5.69
2019-05-12T09:44:04.976Z,5.73
2019-05-12T09:45:10.812Z,5.61
2019-05-12T09:46:04.586Z,5.62
2019-05-12T09:47:19.232Z,5.74
2019-05-12T09:48:14.717Z,5.72
2019-05-12T09:49:06.110Z,5.73
2019-05-12T09:50:15.897Z,5.72
2019-05-12T09:51:10.349Z,5.72
2019-05-12T09:52:23.119Z,5.73
2019-05-12T09:53:15.296Z,5.83
2019-05-12T09:54:10.639Z,5.8
2019-05-12T09:55:10.323Z,5.9
2019-05-12T09:56:10.021Z,5.9
2019-05-12T09:57:09.891Z,5.8
2019-05-12T09:58:25.657Z,5.87
2019-05-12T09:59:26.037Z,5.81
2019-05-12T10:00:14.247Z,5.88
2019-05-12T10:01:14.333Z,5.87
2019-05-12T10:02:23.693Z,5.88
2019-05-12T10:03:14.644Z,5.91
2019-05-12T10:04:20.090Z,5.97
2019-05-12T10:05:16.124Z,5.99
2019-05-12T10:06:21.747Z,5.83
2019-05-12T10:07:16.973Z,5.83
2019-05-12T10:08:19.696Z,5.81
2019-05-12T10:09:25.109Z,5.98
2019-05-12T10:10:19.679Z,5.95
2019-05-12T10:11:24.999Z,5.97
2019-05-12T10:12:20.683Z,6.06
2019-05-12T10:13:30.000Z,6.12
2019-05-12T10:14:20.563Z,6.17
2019-05-12T10:15:28.934Z,5.99
2019-05-12T10:16:21.363Z,6.1
2019-05-12T10:17:30.738Z,6.1
2019-05-12T10:18:24.677Z,6.13
2019-05-12T10:19:23.848Z,6.26
2019-05-12T10:20:29.061Z,6.2
2019-05-12T10:21:24.436Z,6.22
2019-05-12T10:22:24.881Z,6.26
2019-05-12T10:23:30.549Z,6.36
2019-05-12T10:24:26.184Z,6.36
2019-05-12T10:25:30.918Z,6.43
2019-05-12T10:26:27.320Z,6.36
2019-05-12T10:27:36.670Z,6.39
2019-05-12T10:28:29.404Z,6.38
2019-05-12T10:29:32.639Z,6.41
2019-05-12T10:30:29.859Z,6.39
2019-05-12T10:31:39.745Z,6.36
2019-05-12T10:32:30.865Z,6.35
2019-05-12T10:33:33.669Z,6.34
2019-05-12T10:34:40.556Z,6.46
2019-05-12T10:35:35.439Z,6.41
2019-05-12T10:36:39.010Z,6.41
2019-05-12T10:37:35.989Z,6.35
2019-05-12T10:38:35.590Z,6.36
2019-05-12T10:39:38.890Z,6.38
2019-05-12T10:40:39.551Z,6.41
2019-05-12T10:41:40.217Z,6.38
2019-05-12T10:42:48.272Z,6.34
2019-05-12T10:43:39.728Z,6.44
2019-05-12T10:44:46.100Z,6.35
2019-05-12T10:45:40.262Z,6.41
2019-05-12T10:46:43.003Z,6.34
2019-05-12T10:47:40.481Z,6.39
2019-05-12T10:48:41.170Z,6.38
2019-05-12T10:49:41.047Z,6.32
2019-05-12T10:50:44.525Z,6.46
2019-05-12T10:51:47.684Z,6.49
2019-05-12T10:52:44.532Z,6.46
2019-05-12T10:53:48.273Z,6.47
2019-05-12T10:54:43.785Z,6.36
2019-05-12T10:55:44.405Z,6.34
2019-05-12T10:56:44.530Z,6.39
2019-05-12T10:57:47.489Z,6.34
2019-05-12T10:58:46.074Z,6.39
2019-05-12T10:59:53.663Z,6.38
2019-05-12T11:00:46.236Z,6.41
2019-05-12T11:01:54.387Z,6.44
2019-05-12T11:02:47.799Z,6.41
2019-05-12T11:03:56.508Z,6.47
2019-05-12T11:04:49.522Z,6.39
2019-05-12T11:06:04.827Z,6.44
2019-05-12T11:06:54.224Z,6.43
2019-05-12T11:07:49.784Z,6.47
2019-05-12T11:08:55.430Z,6.39
2019-05-12T11:09:50.422Z,6.32
2019-05-12T11:11:04.012Z,6.35
2019-05-12T11:11:54.627Z,6.36
2019-05-12T11:12:52.789Z,6.35
2019-05-12T11:13:55.762Z,6.39
2019-05-12T11:14:54.404Z,6.38
2019-05-12T11:15:55.523Z,6.46
2019-05-12T11:16:54.946Z,6.44
2019-05-12T11:17:56.112Z,6.43
2019-05-12T11:19:06.224Z,6.49
2019-05-12T11:19:59.588Z,6.49
2019-05-12T11:20:59.918Z,6.54
2019-05-12T11:21:59.489Z,6.59
2019-05-12T11:23:00.068Z,6.6
2019-05-12T11:24:00.463Z,6.62
2019-05-12T11:25:04.496Z,6.57
2019-05-12T11:26:00.927Z,6.62
2019-05-12T11:27:01.339Z,6.68
2019-05-12T11:28:04.107Z,6.7
2019-05-12T11:29:04.369Z,6.7
2019-05-12T11:30:04.879Z,6.67
2019-05-12T11:31:03.286Z,6.67
2019-05-12T11:32:03.994Z,6.64
2019-05-12T11:33:05.648Z,6.71
2019-05-12T11:34:05.752Z,6.71
2019-05-12T11:35:05.536Z,6.59
2019-05-12T11:36:05.649Z,6.62
2019-05-12T11:37:05.826Z,6.6
2019-05-12T11:38:06.807Z,6.65
2019-05-12T11:39:09.088Z,6.65
2019-05-12T11:40:09.835Z,6.67
2019-05-12T11:41:15.309Z,6.57
2019-05-12T11:42:09.827Z,6.72
2019-05-12T11:43:10.835Z,6.62
2019-05-12T11:44:13.472Z,6.74
2019-05-12T11:45:13.903Z,6.52
2019-05-12T11:46:12.374Z,6.57
2019-05-12T11:47:24.486Z,6.64
2019-05-12T11:48:16.763Z,6.59
2019-05-12T11:49:26.620Z,6.56
2019-05-12T11:50:18.961Z,6.59
2019-05-12T11:51:26.864Z,6.57
2019-05-12T11:52:24.516Z,6.46
2019-05-12T11:53:30.231Z,6.5
2019-05-12T11:54:20.445Z,6.44
2019-05-12T11:55:31.662Z,6.39
2019-05-12T11:56:24.565Z,6.36
2019-05-12T11:57:30.486Z,6.32
2019-05-12T11:58:23.791Z,6.36
2019-05-12T11:59:24.047Z,6.35
2019-05-12T12:00:24.742Z,6.47
2019-05-12T12:01:24.599Z,6.39
2019-05-12T12:02:30.915Z,6.47
2019-05-12T12:03:25.812Z,6.5
2019-05-12T12:04:28.986Z,6.43
2019-05-12T12:05:29.037Z,6.64
2019-05-12T12:06:29.596Z,6.64
2019-05-12T12:07:29.673Z,6.68
2019-05-12T12:08:44.472Z,6.7
2019-05-12T12:09:49.291Z,6.83
2019-05-12T12:10:49.656Z,6.74
2019-05-12T12:11:44.780Z,6.71
2019-05-12T12:12:54.253Z,6.71
2019-05-12T12:13:46.659Z,6.65
2019-05-12T12:14:54.671Z,6.71
2019-05-12T12:15:48.380Z,6.71
2019-05-12T12:16:55.710Z,6.7
2019-05-12T12:17:49.996Z,6.67
2019-05-12T12:19:11.400Z,6.56
2019-05-12T12:20:22.733Z,6.68
2019-05-12T12:21:14.494Z,6.6
2019-05-12T12:22:09.886Z,6.62
2019-05-12T12:23:16.997Z,6.6
2019-05-12T12:24:13.742Z,6.7
2019-05-12T12:25:16.842Z,6.56
2019-05-12T12:26:13.563Z,6.6
2019-05-12T12:27:14.523Z,6.64
2019-05-12T12:28:14.310Z,6.62
2019-05-12T12:29:14.549Z,6.6
2019-05-12T12:30:24.540Z,6.7
2019-05-12T12:31:16.245Z,6.57
2019-05-12T12:32:24.965Z,6.75
2019-05-12T12:33:20.151Z,6.7
2019-05-12T12:34:33.043Z,6.57
2019-05-12T12:35:23.180Z,6.67
2019-05-12T12:36:23.534Z,6.62
2019-05-12T12:37:25.960Z,6.64
2019-05-12T12:38:20.410Z,6.59
2019-05-12T12:39:23.623Z,6.46
2019-05-12T12:40:21.911Z,6.44
2019-05-12T12:41:24.442Z,6.47
2019-05-12T12:42:24.788Z,6.52
2019-05-12T12:43:25.150Z,6.5
2019-05-12T12:44:24.477Z,6.53
2019-05-12T12:45:24.337Z,6.52
2019-05-12T12:46:26.987Z,6.53
2019-05-12T12:47:24.806Z,6.47
2019-05-12T12:48:33.998Z,6.44
2019-05-12T12:49:29.795Z,6.47
2019-05-12T12:50:34.581Z,6.59
2019-05-12T12:51:29.377Z,6.54
2019-05-12T12:52:29.886Z,6.68
2019-05-12T12:53:29.835Z,6.67
2019-05-12T12:54:29.304Z,6.74
2019-05-12T12:55:29.415Z,6.7
2019-05-12T12:56:35.715Z,6.65
2019-05-12T12:57:30.107Z,6.75
2019-05-12T12:58:35.233Z,6.72
2019-05-12T12:59:33.631Z,6.82
2019-05-12T13:00:53.355Z,6.8
2019-05-12T13:01:36.355Z,6.89
2019-05-12T13:02:34.121Z,6.83
2019-05-12T13:03:35.770Z,6.85
2019-05-12T13:04:45.791Z,6.86
2019-05-12T13:05:35.365Z,6.83
2019-05-12T13:06:35.781Z,6.87
2019-05-12T13:07:36.769Z,6.9
2019-05-12T13:08:39.689Z,6.77
2019-05-12T13:09:39.285Z,6.71
2019-05-12T13:10:46.904Z,6.7
2019-05-12T13:11:40.465Z,6.74
2019-05-12T13:12:44.131Z,6.72
2019-05-12T13:13:40.571Z,6.68
2019-05-12T13:14:44.634Z,6.71
2019-05-12T13:15:44.231Z,6.71
2019-05-12T13:16:44.038Z,6.65
2019-05-12T13:17:47.652Z,6.71
2019-05-12T13:18:43.842Z,6.67
2019-05-12T13:19:54.597Z,6.7
2019-05-12T13:20:45.518Z,6.72
2019-05-12T13:21:46.440Z,6.71
2019-05-12T13:22:46.450Z,6.72
2019-05-12T13:23:47.217Z,6.74
2019-05-12T13:24:49.420Z,6.72
2019-05-12T13:25:55.895Z,6.78
2019-05-12T13:26:49.317Z,6.82
2019-05-12T13:27:50.283Z,6.8
2019-05-12T13:28:58.849Z,6.9
2019-05-12T13:29:51.109Z,6.8
2019-05-12T13:31:13.547Z,6.71